sensor_id;sensor_type;location;lat;lon;timestamp;P1;durP1;ratioP1;P2;durP2;ratioP2
40931;SDS011;36257;46.052;12.540;2023-02-19T00:02:23;179.02;;;103.50;;
40931;SDS011;36257;46.052;12.540;2023-02-19T00:04:48;172.38;;;96.03;;
40931;SDS011;36257;46.052;12.540;2023-02-19T00:07:14;168.32;;;96.30;;
40931;SDS011;36257;46.052;12.540;2023-02-19T00:09:39;165.93;;;94.47;;
40931;SDS011;36257;46.052;12.540;2023-02-19T00:12:05;171.88;;;98.97;;
40931;SDS011;36257;46.052;12.540;2023-02-19T00:14:31;170.30;;;96.53;;
40931;SDS011;36257;46.052;12.540;2023-02-19T00:16:56;175.77;;;102.78;;
40931;SDS011;36257;46.052;12.540;2023-02-19T00:19:22;181.65;;;103.32;;
40931;SDS011;36257;46.052;12.540;2023-02-19T00:21:51;185.98;;;102.00;;
40931;SDS011;36257;46.052;12.540;2023-02-19T00:24:17;186.88;;;107.30;;
40931;SDS011;36257;46.052;12.540;2023-02-19T00:26:44;172.93;;;100.28;;
40931;SDS011;36257;46.052;12.540;2023-02-19T00:29:14;178.80;;;100.70;;
40931;SDS011;36257;46.052;12.540;2023-02-19T00:31:41;184.80;;;103.70;;
40931;SDS011;36257;46.052;12.540;2023-02-19T00:34:08;180.02;;;103.18;;
40931;SDS011;36257;46.052;12.540;2023-02-19T00:36:35;179.15;;;102.85;;
40931;SDS011;36257;46.052;12.540;2023-02-19T00:39:03;180.93;;;104.93;;
40931;SDS011;36257;46.052;12.540;2023-02-19T00:41:30;186.48;;;103.60;;
40931;SDS011;36257;46.052;12.540;2023-02-19T00:44:06;189.30;;;104.95;;
40931;SDS011;36257;46.052;12.540;2023-02-19T00:46:33;183.15;;;102.30;;
40931;SDS011;36257;46.052;12.540;2023-02-19T00:49:04;179.25;;;100.45;;
40931;SDS011;36257;46.052;12.540;2023-02-19T00:53:58;174.73;;;97.03;;
40931;SDS011;36257;46.052;12.540;2023-02-19T00:56:25;172.70;;;96.55;;
40931;SDS011;36257;46.052;12.540;2023-02-19T00:58:51;184.93;;;100.82;;
40931;SDS011;36257;46.052;12.540;2023-02-19T01:01:17;194.43;;;110.30;;
40931;SDS011;36257;46.052;12.540;2023-02-19T01:03:43;180.32;;;101.88;;
40931;SDS011;36257;46.052;12.540;2023-02-19T01:06:10;182.65;;;102.97;;
40931;SDS011;36257;46.052;12.540;2023-02-19T01:08:38;192.13;;;106.07;;
40931;SDS011;36257;46.052;12.540;2023-02-19T01:11:04;187.70;;;106.50;;
40931;SDS011;36257;46.052;12.540;2023-02-19T01:13:31;189.00;;;106.93;;
40931;SDS011;36257;46.052;12.540;2023-02-19T01:16:04;187.55;;;103.07;;
40931;SDS011;36257;46.052;12.540;2023-02-19T01:18:32;181.75;;;98.80;;
40931;SDS011;36257;46.052;12.540;2023-02-19T01:20:58;182.70;;;103.35;;
40931;SDS011;36257;46.052;12.540;2023-02-19T01:23:24;174.52;;;103.78;;
40931;SDS011;36257;46.052;12.540;2023-02-19T01:25:49;187.73;;;105.40;;
40931;SDS011;36257;46.052;12.540;2023-02-19T01:28:15;185.70;;;105.32;;
40931;SDS011;36257;46.052;12.540;2023-02-19T01:30:40;173.82;;;100.25;;
40931;SDS011;36257;46.052;12.540;2023-02-19T01:33:07;178.60;;;105.30;;
40931;SDS011;36257;46.052;12.540;2023-02-19T01:35:33;185.30;;;100.50;;
40931;SDS011;36257;46.052;12.540;2023-02-19T01:38:02;173.65;;;99.00;;
40931;SDS011;36257;46.052;12.540;2023-02-19T01:40:28;189.25;;;104.80;;
40931;SDS011;36257;46.052;12.540;2023-02-19T01:42:53;175.73;;;104.25;;
40931;SDS011;36257;46.052;12.540;2023-02-19T01:45:23;178.13;;;100.25;;
40931;SDS011;36257;46.052;12.540;2023-02-19T01:47:54;181.93;;;103.70;;
40931;SDS011;36257;46.052;12.540;2023-02-19T01:50:27;183.23;;;107.80;;
40931;SDS011;36257;46.052;12.540;2023-02-19T01:52:55;190.80;;;105.63;;
40931;SDS011;36257;46.052;12.540;2023-02-19T01:55:20;176.90;;;97.22;;
40931;SDS011;36257;46.052;12.540;2023-02-19T01:57:47;185.27;;;99.85;;
40931;SDS011;36257;46.052;12.540;2023-02-19T02:00:17;179.43;;;100.50;;
40931;SDS011;36257;46.052;12.540;2023-02-19T02:02:44;187.40;;;101.00;;
40931;SDS011;36257;46.052;12.540;2023-02-19T02:05:26;178.27;;;97.72;;
40931;SDS011;36257;46.052;12.540;2023-02-19T02:08:04;170.43;;;98.65;;
40931;SDS011;36257;46.052;12.540;2023-02-19T02:10:48;183.23;;;101.72;;
40931;SDS011;36257;46.052;12.540;2023-02-19T02:15:48;177.48;;;97.05;;
40931;SDS011;36257;46.052;12.540;2023-02-19T02:18:26;170.77;;;98.88;;
40931;SDS011;36257;46.052;12.540;2023-02-19T02:32:10;174.27;;;98.88;;
40931;SDS011;36257;46.052;12.540;2023-02-19T02:37:36;178.30;;;102.30;;
40931;SDS011;36257;46.052;12.540;2023-02-19T02:40:05;184.27;;;102.10;;
40931;SDS011;36257;46.052;12.540;2023-02-19T02:45:09;174.35;;;91.43;;
40931;SDS011;36257;46.052;12.540;2023-02-19T02:47:58;175.55;;;94.32;;
40931;SDS011;36257;46.052;12.540;2023-02-19T02:50:45;172.05;;;95.15;;
40931;SDS011;36257;46.052;12.540;2023-02-19T02:53:32;169.73;;;91.70;;
40931;SDS011;36257;46.052;12.540;2023-02-19T02:56:23;170.68;;;93.88;;
40931;SDS011;36257;46.052;12.540;2023-02-19T02:58:49;165.30;;;95.05;;
40931;SDS011;36257;46.052;12.540;2023-02-19T03:01:21;174.90;;;98.18;;
40931;SDS011;36257;46.052;12.540;2023-02-19T03:04:11;169.50;;;95.85;;
40931;SDS011;36257;46.052;12.540;2023-02-19T03:06:43;159.77;;;90.63;;
40931;SDS011;36257;46.052;12.540;2023-02-19T03:09:34;164.50;;;94.43;;
40931;SDS011;36257;46.052;12.540;2023-02-19T03:12:05;179.57;;;100.10;;
40931;SDS011;36257;46.052;12.540;2023-02-19T03:17:40;166.02;;;91.32;;
40931;SDS011;36257;46.052;12.540;2023-02-19T03:20:29;173.30;;;93.15;;
40931;SDS011;36257;46.052;12.540;2023-02-19T03:23:00;166.52;;;92.72;;
40931;SDS011;36257;46.052;12.540;2023-02-19T03:25:27;168.13;;;94.80;;
40931;SDS011;36257;46.052;12.540;2023-02-19T03:28:15;168.20;;;92.72;;
40931;SDS011;36257;46.052;12.540;2023-02-19T03:31:04;165.57;;;95.38;;
40931;SDS011;36257;46.052;12.540;2023-02-19T03:33:35;172.77;;;93.07;;
40931;SDS011;36257;46.052;12.540;2023-02-19T03:36:01;172.00;;;92.75;;
40931;SDS011;36257;46.052;12.540;2023-02-19T03:38:37;153.98;;;88.53;;
40931;SDS011;36257;46.052;12.540;2023-02-19T03:47:04;165.00;;;91.75;;
40931;SDS011;36257;46.052;12.540;2023-02-19T03:49:53;161.35;;;91.60;;
40931;SDS011;36257;46.052;12.540;2023-02-19T03:52:38;153.88;;;84.78;;
40931;SDS011;36257;46.052;12.540;2023-02-19T03:55:11;166.02;;;92.05;;
40931;SDS011;36257;46.052;12.540;2023-02-19T03:57:55;164.13;;;91.03;;
40931;SDS011;36257;46.052;12.540;2023-02-19T04:03:27;165.00;;;90.53;;
40931;SDS011;36257;46.052;12.540;2023-02-19T04:06:12;147.95;;;87.20;;
40931;SDS011;36257;46.052;12.540;2023-02-19T04:08:42;165.57;;;87.82;;
40931;SDS011;36257;46.052;12.540;2023-02-19T04:11:11;158.82;;;87.78;;
40931;SDS011;36257;46.052;12.540;2023-02-19T04:13:44;161.70;;;90.78;;
40931;SDS011;36257;46.052;12.540;2023-02-19T04:16:20;155.88;;;89.05;;
40931;SDS011;36257;46.052;12.540;2023-02-19T04:18:49;157.25;;;90.07;;
40931;SDS011;36257;46.052;12.540;2023-02-19T04:21:18;159.50;;;91.55;;
40931;SDS011;36257;46.052;12.540;2023-02-19T04:23:46;147.18;;;84.90;;
40931;SDS011;36257;46.052;12.540;2023-02-19T04:26:12;160.65;;;88.68;;
40931;SDS011;36257;46.052;12.540;2023-02-19T04:28:40;149.32;;;86.55;;
40931;SDS011;36257;46.052;12.540;2023-02-19T04:31:08;147.60;;;84.28;;
40931;SDS011;36257;46.052;12.540;2023-02-19T04:33:34;154.18;;;88.70;;
40931;SDS011;36257;46.052;12.540;2023-02-19T04:36:00;151.30;;;88.43;;
40931;SDS011;36257;46.052;12.540;2023-02-19T04:38:26;160.00;;;90.90;;
40931;SDS011;36257;46.052;12.540;2023-02-19T04:40:52;165.43;;;93.95;;
40931;SDS011;36257;46.052;12.540;2023-02-19T04:43:17;152.68;;;87.57;;
40931;SDS011;36257;46.052;12.540;2023-02-19T04:45:44;150.43;;;87.15;;
40931;SDS011;36257;46.052;12.540;2023-02-19T04:48:09;164.38;;;89.57;;
40931;SDS011;36257;46.052;12.540;2023-02-19T04:50:38;161.95;;;93.28;;
40931;SDS011;36257;46.052;12.540;2023-02-19T04:53:05;159.80;;;90.65;;
40931;SDS011;36257;46.052;12.540;2023-02-19T04:55:31;170.75;;;95.72;;
40931;SDS011;36257;46.052;12.540;2023-02-19T04:58:00;173.02;;;95.30;;
40931;SDS011;36257;46.052;12.540;2023-02-19T05:00:25;173.98;;;93.20;;
40931;SDS011;36257;46.052;12.540;2023-02-19T05:02:51;177.65;;;93.03;;
40931;SDS011;36257;46.052;12.540;2023-02-19T05:05:16;174.15;;;96.25;;
40931;SDS011;36257;46.052;12.540;2023-02-19T05:07:42;167.32;;;97.70;;
40931;SDS011;36257;46.052;12.540;2023-02-19T05:10:08;161.60;;;90.65;;
40931;SDS011;36257;46.052;12.540;2023-02-19T05:12:33;167.38;;;95.50;;
40931;SDS011;36257;46.052;12.540;2023-02-19T05:14:59;168.52;;;91.70;;
40931;SDS011;36257;46.052;12.540;2023-02-19T05:17:24;162.15;;;92.45;;
40931;SDS011;36257;46.052;12.540;2023-02-19T05:19:50;164.43;;;91.07;;
40931;SDS011;36257;46.052;12.540;2023-02-19T05:22:16;163.25;;;94.13;;
40931;SDS011;36257;46.052;12.540;2023-02-19T05:24:41;167.23;;;95.32;;
40931;SDS011;36257;46.052;12.540;2023-02-19T05:27:07;168.38;;;94.00;;
40931;SDS011;36257;46.052;12.540;2023-02-19T05:29:33;161.63;;;90.10;;
40931;SDS011;36257;46.052;12.540;2023-02-19T05:31:58;161.15;;;93.57;;
40931;SDS011;36257;46.052;12.540;2023-02-19T05:34:24;169.07;;;92.70;;
40931;SDS011;36257;46.052;12.540;2023-02-19T05:36:49;171.68;;;91.70;;
40931;SDS011;36257;46.052;12.540;2023-02-19T05:39:15;169.35;;;94.05;;
40931;SDS011;36257;46.052;12.540;2023-02-19T05:41:41;167.23;;;93.05;;
40931;SDS011;36257;46.052;12.540;2023-02-19T05:44:08;164.27;;;91.90;;
40931;SDS011;36257;46.052;12.540;2023-02-19T05:46:34;168.40;;;96.28;;
40931;SDS011;36257;46.052;12.540;2023-02-19T05:49:00;164.57;;;93.88;;
40931;SDS011;36257;46.052;12.540;2023-02-19T05:51:27;178.93;;;96.07;;
40931;SDS011;36257;46.052;12.540;2023-02-19T05:53:53;166.15;;;93.43;;
40931;SDS011;36257;46.052;12.540;2023-02-19T05:58:56;187.82;;;101.60;;
40931;SDS011;36257;46.052;12.540;2023-02-19T06:01:23;172.85;;;94.47;;
40931;SDS011;36257;46.052;12.540;2023-02-19T06:03:51;174.18;;;96.03;;
40931;SDS011;36257;46.052;12.540;2023-02-19T06:06:17;164.80;;;95.35;;
40931;SDS011;36257;46.052;12.540;2023-02-19T06:08:44;188.48;;;104.25;;
40931;SDS011;36257;46.052;12.540;2023-02-19T06:11:09;180.52;;;105.25;;
40931;SDS011;36257;46.052;12.540;2023-02-19T06:13:35;191.95;;;104.28;;
40931;SDS011;36257;46.052;12.540;2023-02-19T06:16:04;191.90;;;105.07;;
40931;SDS011;36257;46.052;12.540;2023-02-19T06:18:31;190.38;;;103.28;;
40931;SDS011;36257;46.052;12.540;2023-02-19T06:21:03;181.18;;;99.50;;
40931;SDS011;36257;46.052;12.540;2023-02-19T06:23:30;197.20;;;103.95;;
40931;SDS011;36257;46.052;12.540;2023-02-19T06:28:34;190.75;;;103.22;;
40931;SDS011;36257;46.052;12.540;2023-02-19T06:31:00;196.65;;;105.40;;
40931;SDS011;36257;46.052;12.540;2023-02-19T06:33:26;198.77;;;103.75;;
40931;SDS011;36257;46.052;12.540;2023-02-19T06:35:52;197.82;;;101.90;;
40931;SDS011;36257;46.052;12.540;2023-02-19T06:38:19;176.68;;;97.47;;
40931;SDS011;36257;46.052;12.540;2023-02-19T06:40:45;178.75;;;96.30;;
40931;SDS011;36257;46.052;12.540;2023-02-19T06:43:11;183.30;;;98.93;;
40931;SDS011;36257;46.052;12.540;2023-02-19T06:45:36;183.70;;;99.75;;
40931;SDS011;36257;46.052;12.540;2023-02-19T06:48:02;186.20;;;99.68;;
40931;SDS011;36257;46.052;12.540;2023-02-19T06:50:28;181.30;;;96.00;;
40931;SDS011;36257;46.052;12.540;2023-02-19T06:52:53;184.65;;;96.40;;
40931;SDS011;36257;46.052;12.540;2023-02-19T06:55:19;181.35;;;97.68;;
40931;SDS011;36257;46.052;12.540;2023-02-19T06:57:44;183.90;;;101.47;;
40931;SDS011;36257;46.052;12.540;2023-02-19T07:00:10;184.10;;;98.93;;
40931;SDS011;36257;46.052;12.540;2023-02-19T07:02:36;181.38;;;99.90;;
40931;SDS011;36257;46.052;12.540;2023-02-19T07:05:02;177.35;;;99.20;;
40931;SDS011;36257;46.052;12.540;2023-02-19T07:07:27;177.20;;;97.85;;
40931;SDS011;36257;46.052;12.540;2023-02-19T07:09:53;172.70;;;99.63;;
40931;SDS011;36257;46.052;12.540;2023-02-19T07:12:18;183.07;;;98.18;;
40931;SDS011;36257;46.052;12.540;2023-02-19T07:14:44;173.45;;;98.72;;
40931;SDS011;36257;46.052;12.540;2023-02-19T07:17:10;170.60;;;97.03;;
40931;SDS011;36257;46.052;12.540;2023-02-19T07:19:35;181.55;;;95.35;;
40931;SDS011;36257;46.052;12.540;2023-02-19T07:22:01;166.02;;;97.05;;
40931;SDS011;36257;46.052;12.540;2023-02-19T07:24:26;181.15;;;99.57;;
40931;SDS011;36257;46.052;12.540;2023-02-19T07:26:52;176.77;;;97.50;;
40931;SDS011;36257;46.052;12.540;2023-02-19T07:29:17;164.70;;;90.72;;
40931;SDS011;36257;46.052;12.540;2023-02-19T07:31:43;170.00;;;92.82;;
40931;SDS011;36257;46.052;12.540;2023-02-19T07:34:09;159.93;;;86.82;;
40931;SDS011;36257;46.052;12.540;2023-02-19T07:36:34;163.60;;;93.63;;
40931;SDS011;36257;46.052;12.540;2023-02-19T07:39:00;155.25;;;87.03;;
40931;SDS011;36257;46.052;12.540;2023-02-19T07:41:26;152.73;;;86.65;;
40931;SDS011;36257;46.052;12.540;2023-02-19T07:43:52;146.50;;;84.60;;
40931;SDS011;36257;46.052;12.540;2023-02-19T07:46:18;153.88;;;83.00;;
40931;SDS011;36257;46.052;12.540;2023-02-19T07:48:44;138.45;;;83.75;;
40931;SDS011;36257;46.052;12.540;2023-02-19T07:51:12;137.65;;;80.85;;
40931;SDS011;36257;46.052;12.540;2023-02-19T07:53:41;142.20;;;81.90;;
40931;SDS011;36257;46.052;12.540;2023-02-19T07:56:07;138.48;;;81.07;;
40931;SDS011;36257;46.052;12.540;2023-02-19T08:01:10;141.60;;;81.47;;
40931;SDS011;36257;46.052;12.540;2023-02-19T08:03:39;137.02;;;80.28;;
40931;SDS011;36257;46.052;12.540;2023-02-19T08:06:05;144.23;;;84.82;;
40931;SDS011;36257;46.052;12.540;2023-02-19T08:08:31;148.07;;;86.32;;
40931;SDS011;36257;46.052;12.540;2023-02-19T08:11:00;148.15;;;88.20;;
40931;SDS011;36257;46.052;12.540;2023-02-19T08:13:50;188.68;;;102.60;;
40931;SDS011;36257;46.052;12.540;2023-02-19T08:16:16;186.85;;;107.05;;
40931;SDS011;36257;46.052;12.540;2023-02-19T08:18:45;178.93;;;106.03;;
40931;SDS011;36257;46.052;12.540;2023-02-19T08:21:12;179.32;;;103.32;;
40931;SDS011;36257;46.052;12.540;2023-02-19T08:23:38;187.77;;;105.20;;
40931;SDS011;36257;46.052;12.540;2023-02-19T08:26:04;187.13;;;107.13;;
40931;SDS011;36257;46.052;12.540;2023-02-19T08:28:30;197.15;;;105.70;;
40931;SDS011;36257;46.052;12.540;2023-02-19T08:31:00;181.43;;;107.55;;
40931;SDS011;36257;46.052;12.540;2023-02-19T08:33:27;187.30;;;102.28;;
40931;SDS011;36257;46.052;12.540;2023-02-19T08:38:43;171.15;;;99.75;;
40931;SDS011;36257;46.052;12.540;2023-02-19T08:41:09;162.15;;;94.88;;
40931;SDS011;36257;46.052;12.540;2023-02-19T08:43:36;164.20;;;96.53;;
40931;SDS011;36257;46.052;12.540;2023-02-19T08:46:02;167.18;;;96.80;;
40931;SDS011;36257;46.052;12.540;2023-02-19T08:48:29;170.02;;;94.68;;
40931;SDS011;36257;46.052;12.540;2023-02-19T08:50:55;175.35;;;103.95;;
40931;SDS011;36257;46.052;12.540;2023-02-19T08:55:48;164.68;;;94.75;;
40931;SDS011;36257;46.052;12.540;2023-02-19T08:58:14;166.45;;;97.75;;
40931;SDS011;36257;46.052;12.540;2023-02-19T09:00:40;138.63;;;82.07;;
40931;SDS011;36257;46.052;12.540;2023-02-19T09:03:05;122.35;;;71.72;;
40931;SDS011;36257;46.052;12.540;2023-02-19T09:05:31;145.57;;;84.78;;
40931;SDS011;36257;46.052;12.540;2023-02-19T09:07:57;142.48;;;84.50;;
40931;SDS011;36257;46.052;12.540;2023-02-19T09:10:22;139.45;;;81.70;;
40931;SDS011;36257;46.052;12.540;2023-02-19T09:12:48;130.55;;;73.50;;
40931;SDS011;36257;46.052;12.540;2023-02-19T09:15:13;116.65;;;70.57;;
40931;SDS011;36257;46.052;12.540;2023-02-19T09:17:39;120.82;;;73.28;;
40931;SDS011;36257;46.052;12.540;2023-02-19T09:20:05;121.72;;;71.20;;
40931;SDS011;36257;46.052;12.540;2023-02-19T09:22:31;123.35;;;71.55;;
40931;SDS011;36257;46.052;12.540;2023-02-19T09:24:57;124.13;;;72.35;;
40931;SDS011;36257;46.052;12.540;2023-02-19T09:27:22;178.85;;;99.85;;
40931;SDS011;36257;46.052;12.540;2023-02-19T09:29:48;175.63;;;101.50;;
40931;SDS011;36257;46.052;12.540;2023-02-19T09:32:13;157.48;;;92.68;;
40931;SDS011;36257;46.052;12.540;2023-02-19T09:34:39;132.48;;;77.22;;
40931;SDS011;36257;46.052;12.540;2023-02-19T09:37:05;129.43;;;78.80;;
40931;SDS011;36257;46.052;12.540;2023-02-19T09:39:31;188.93;;;106.90;;
40931;SDS011;36257;46.052;12.540;2023-02-19T09:42:02;182.43;;;105.18;;
40931;SDS011;36257;46.052;12.540;2023-02-19T09:44:36;188.65;;;110.05;;
40931;SDS011;36257;46.052;12.540;2023-02-19T09:47:07;182.65;;;108.57;;
40931;SDS011;36257;46.052;12.540;2023-02-19T09:49:39;185.88;;;113.45;;
40931;SDS011;36257;46.052;12.540;2023-02-19T09:54:42;169.75;;;99.43;;
40931;SDS011;36257;46.052;12.540;2023-02-19T09:59:39;150.07;;;84.93;;
40931;SDS011;36257;46.052;12.540;2023-02-19T10:04:41;120.13;;;69.18;;
40931;SDS011;36257;46.052;12.540;2023-02-19T10:09:38;90.18;;;51.55;;
40931;SDS011;36257;46.052;12.540;2023-02-19T10:12:03;78.00;;;47.05;;
40931;SDS011;36257;46.052;12.540;2023-02-19T10:14:44;88.63;;;51.17;;
40931;SDS011;36257;46.052;12.540;2023-02-19T10:17:25;82.00;;;51.05;;
40931;SDS011;36257;46.052;12.540;2023-02-19T10:19:54;75.70;;;47.60;;
40931;SDS011;36257;46.052;12.540;2023-02-19T10:22:20;81.47;;;49.53;;
40931;SDS011;36257;46.052;12.540;2023-02-19T10:24:48;85.78;;;53.03;;
40931;SDS011;36257;46.052;12.540;2023-02-19T10:27:16;93.63;;;54.00;;
40931;SDS011;36257;46.052;12.540;2023-02-19T10:29:43;87.35;;;53.75;;
40931;SDS011;36257;46.052;12.540;2023-02-19T10:32:14;70.72;;;45.63;;
40931;SDS011;36257;46.052;12.540;2023-02-19T10:35:24;67.75;;;42.95;;
40931;SDS011;36257;46.052;12.540;2023-02-19T10:37:47;71.35;;;45.25;;
40931;SDS011;36257;46.052;12.540;2023-02-19T10:40:24;66.03;;;41.90;;
40931;SDS011;36257;46.052;12.540;2023-02-19T10:45:32;73.30;;;46.05;;
40931;SDS011;36257;46.052;12.540;2023-02-19T10:48:01;83.88;;;52.22;;
40931;SDS011;36257;46.052;12.540;2023-02-19T10:50:31;117.45;;;68.10;;
40931;SDS011;36257;46.052;12.540;2023-02-19T10:52:59;339.27;;;91.55;;
40931;SDS011;36257;46.052;12.540;2023-02-19T10:55:27;169.97;;;79.63;;
40931;SDS011;36257;46.052;12.540;2023-02-19T10:57:55;122.15;;;70.18;;
40931;SDS011;36257;46.052;12.540;2023-02-19T11:00:28;170.30;;;95.53;;
40931;SDS011;36257;46.052;12.540;2023-02-19T11:05:38;184.98;;;107.35;;
40931;SDS011;36257;46.052;12.540;2023-02-19T11:08:24;209.57;;;115.83;;
40931;SDS011;36257;46.052;12.540;2023-02-19T11:10:50;188.43;;;107.20;;
40931;SDS011;36257;46.052;12.540;2023-02-19T11:13:17;190.55;;;106.85;;
40931;SDS011;36257;46.052;12.540;2023-02-19T11:15:56;186.50;;;104.30;;
40931;SDS011;36257;46.052;12.540;2023-02-19T11:18:29;168.80;;;95.95;;
40931;SDS011;36257;46.052;12.540;2023-02-19T11:20:57;164.90;;;96.90;;
40931;SDS011;36257;46.052;12.540;2023-02-19T11:25:56;161.90;;;92.78;;
40931;SDS011;36257;46.052;12.540;2023-02-19T11:28:31;153.18;;;89.82;;
40931;SDS011;36257;46.052;12.540;2023-02-19T11:33:44;137.35;;;79.57;;
40931;SDS011;36257;46.052;12.540;2023-02-19T11:36:22;141.07;;;82.57;;
40931;SDS011;36257;46.052;12.540;2023-02-19T11:38:51;136.55;;;80.15;;
40931;SDS011;36257;46.052;12.540;2023-02-19T11:41:21;124.68;;;72.78;;
40931;SDS011;36257;46.052;12.540;2023-02-19T11:44:23;122.55;;;71.25;;
40931;SDS011;36257;46.052;12.540;2023-02-19T11:55:01;116.13;;;69.75;;
40931;SDS011;36257;46.052;12.540;2023-02-19T11:57:41;114.32;;;68.35;;
40931;SDS011;36257;46.052;12.540;2023-02-19T12:00:20;111.68;;;69.80;;
40931;SDS011;36257;46.052;12.540;2023-02-19T12:21:22;111.07;;;64.57;;
40931;SDS011;36257;46.052;12.540;2023-02-19T12:24:11;105.30;;;64.35;;
40931;SDS011;36257;46.052;12.540;2023-02-19T12:26:45;111.53;;;66.00;;
40931;SDS011;36257;46.052;12.540;2023-02-19T12:32:36;112.30;;;67.18;;
40931;SDS011;36257;46.052;12.540;2023-02-19T12:38:01;125.97;;;74.13;;
40931;SDS011;36257;46.052;12.540;2023-02-19T12:40:44;123.72;;;74.00;;
40931;SDS011;36257;46.052;12.540;2023-02-19T12:43:34;98.10;;;58.83;;
40931;SDS011;36257;46.052;12.540;2023-02-19T12:46:06;99.97;;;62.28;;
40931;SDS011;36257;46.052;12.540;2023-02-19T12:48:42;127.82;;;74.18;;
40931;SDS011;36257;46.052;12.540;2023-02-19T12:53:57;121.13;;;69.75;;
40931;SDS011;36257;46.052;12.540;2023-02-19T12:56:28;117.22;;;69.68;;
40931;SDS011;36257;46.052;12.540;2023-02-19T12:59:00;104.45;;;61.47;;
40931;SDS011;36257;46.052;12.540;2023-02-19T13:01:53;103.90;;;61.72;;
40931;SDS011;36257;46.052;12.540;2023-02-19T13:04:27;100.30;;;58.35;;
40931;SDS011;36257;46.052;12.540;2023-02-19T13:07:19;98.57;;;59.85;;
40931;SDS011;36257;46.052;12.540;2023-02-19T13:12:48;86.07;;;53.60;;
40931;SDS011;36257;46.052;12.540;2023-02-19T13:15:17;89.43;;;55.85;;
40931;SDS011;36257;46.052;12.540;2023-02-19T13:18:08;90.50;;;53.95;;
40931;SDS011;36257;46.052;12.540;2023-02-19T13:20:41;89.25;;;53.40;;
40931;SDS011;36257;46.052;12.540;2023-02-19T13:34:27;77.20;;;50.90;;
40931;SDS011;36257;46.052;12.540;2023-02-19T13:37:02;80.32;;;50.95;;
40931;SDS011;36257;46.052;12.540;2023-02-19T13:39:29;84.65;;;52.83;;
40931;SDS011;36257;46.052;12.540;2023-02-19T13:41:55;79.30;;;50.50;;
40931;SDS011;36257;46.052;12.540;2023-02-19T13:44:26;82.55;;;52.20;;
40931;SDS011;36257;46.052;12.540;2023-02-19T13:46:54;86.00;;;54.00;;
40931;SDS011;36257;46.052;12.540;2023-02-19T13:51:58;88.10;;;52.20;;
40931;SDS011;36257;46.052;12.540;2023-02-19T13:57:22;87.60;;;54.85;;
40931;SDS011;36257;46.052;12.540;2023-02-19T13:59:53;89.80;;;52.92;;
40931;SDS011;36257;46.052;12.540;2023-02-19T14:14:39;87.63;;;55.67;;
40931;SDS011;36257;46.052;12.540;2023-02-19T14:28:01;81.15;;;50.05;;
40931;SDS011;36257;46.052;12.540;2023-02-19T14:33:17;75.88;;;50.30;;
40931;SDS011;36257;46.052;12.540;2023-02-19T14:35:46;79.05;;;49.75;;
40931;SDS011;36257;46.052;12.540;2023-02-19T14:38:24;79.72;;;50.55;;
40931;SDS011;36257;46.052;12.540;2023-02-19T14:41:00;84.38;;;52.90;;
40931;SDS011;36257;46.052;12.540;2023-02-19T14:43:26;80.18;;;50.38;;
40931;SDS011;36257;46.052;12.540;2023-02-19T14:48:28;76.35;;;50.33;;
40931;SDS011;36257;46.052;12.540;2023-02-19T14:51:01;74.45;;;48.70;;
40931;SDS011;36257;46.052;12.540;2023-02-19T14:53:30;73.85;;;47.20;;
40931;SDS011;36257;46.052;12.540;2023-02-19T14:56:03;76.25;;;47.55;;
40931;SDS011;36257;46.052;12.540;2023-02-19T14:58:30;71.57;;;48.08;;
40931;SDS011;36257;46.052;12.540;2023-02-19T15:00:57;73.20;;;48.30;;
40931;SDS011;36257;46.052;12.540;2023-02-19T15:03:27;72.40;;;47.47;;
40931;SDS011;36257;46.052;12.540;2023-02-19T15:06:07;78.35;;;49.10;;
40931;SDS011;36257;46.052;12.540;2023-02-19T15:08:41;69.75;;;46.10;;
40931;SDS011;36257;46.052;12.540;2023-02-19T15:11:11;69.00;;;44.55;;
40931;SDS011;36257;46.052;12.540;2023-02-19T15:13:43;77.75;;;50.60;;
40931;SDS011;36257;46.052;12.540;2023-02-19T15:16:16;94.47;;;54.95;;
40931;SDS011;36257;46.052;12.540;2023-02-19T15:18:44;86.63;;;56.58;;
40931;SDS011;36257;46.052;12.540;2023-02-19T15:23:55;109.93;;;67.13;;
40931;SDS011;36257;46.052;12.540;2023-02-19T15:27:05;85.50;;;53.72;;
40931;SDS011;36257;46.052;12.540;2023-02-19T15:29:15;81.00;;;53.75;;
40931;SDS011;36257;46.052;12.540;2023-02-19T15:31:52;77.97;;;50.25;;
40931;SDS011;36257;46.052;12.540;2023-02-19T15:34:24;69.40;;;45.80;;
40931;SDS011;36257;46.052;12.540;2023-02-19T15:36:52;69.90;;;43.85;;
40931;SDS011;36257;46.052;12.540;2023-02-19T15:39:22;64.45;;;42.30;;
40931;SDS011;36257;46.052;12.540;2023-02-19T15:41:54;74.13;;;44.90;;
40931;SDS011;36257;46.052;12.540;2023-02-19T15:46:54;58.83;;;38.20;;
40931;SDS011;36257;46.052;12.540;2023-02-19T15:49:29;56.97;;;37.80;;
40931;SDS011;36257;46.052;12.540;2023-02-19T15:52:03;56.35;;;38.08;;
40931;SDS011;36257;46.052;12.540;2023-02-19T15:55:10;52.67;;;35.92;;
40931;SDS011;36257;46.052;12.540;2023-02-19T15:57:42;57.67;;;37.88;;
40931;SDS011;36257;46.052;12.540;2023-02-19T16:00:18;56.65;;;37.20;;
40931;SDS011;36257;46.052;12.540;2023-02-19T16:02:50;57.13;;;38.03;;
40931;SDS011;36257;46.052;12.540;2023-02-19T16:05:25;59.95;;;37.90;;
40931;SDS011;36257;46.052;12.540;2023-02-19T16:08:05;56.37;;;36.87;;
40931;SDS011;36257;46.052;12.540;2023-02-19T16:10:57;58.60;;;36.50;;
40931;SDS011;36257;46.052;12.540;2023-02-19T16:13:26;55.35;;;37.13;;
40931;SDS011;36257;46.052;12.540;2023-02-19T16:15:57;54.53;;;34.80;;
40931;SDS011;36257;46.052;12.540;2023-02-19T16:18:23;53.55;;;36.38;;
40931;SDS011;36257;46.052;12.540;2023-02-19T16:20:49;55.45;;;36.85;;
40931;SDS011;36257;46.052;12.540;2023-02-19T16:23:15;56.17;;;37.03;;
40931;SDS011;36257;46.052;12.540;2023-02-19T16:25:44;55.92;;;37.65;;
40931;SDS011;36257;46.052;12.540;2023-02-19T16:28:19;55.05;;;35.65;;
40931;SDS011;36257;46.052;12.540;2023-02-19T16:30:56;51.60;;;34.25;;
40931;SDS011;36257;46.052;12.540;2023-02-19T16:36:14;60.33;;;37.60;;
40931;SDS011;36257;46.052;12.540;2023-02-19T16:41:27;56.72;;;34.72;;
40931;SDS011;36257;46.052;12.540;2023-02-19T16:43:53;59.33;;;37.10;;
40931;SDS011;36257;46.052;12.540;2023-02-19T16:46:18;58.47;;;38.13;;
40931;SDS011;36257;46.052;12.540;2023-02-19T16:48:44;65.90;;;38.53;;
40931;SDS011;36257;46.052;12.540;2023-02-19T16:51:14;60.42;;;39.47;;
40931;SDS011;36257;46.052;12.540;2023-02-19T16:53:49;68.65;;;42.25;;
40931;SDS011;36257;46.052;12.540;2023-02-19T16:56:17;63.53;;;39.88;;